createdAt,value
2018-05-03T00:00:30.095Z,13.73
2018-05-03T00:02:58.432Z,13.71
2018-05-03T00:05:26.757Z,13.75
2018-05-03T00:07:55.107Z,13.81
2018-05-03T00:10:23.411Z,13.87
2018-05-03T00:12:51.747Z,13.89
2018-05-03T00:15:20.069Z,13.89
2018-05-03T00:17:48.412Z,13.89
2018-05-03T00:20:16.740Z,13.88
2018-05-03T00:22:45.077Z,13.84
2018-05-03T00:25:13.388Z,13.79
2018-05-03T00:27:41.728Z,13.69
2018-05-03T00:30:10.055Z,13.63
2018-05-03T00:32:38.394Z,13.60
2018-05-03T00:35:06.713Z,13.55
2018-05-03T00:37:35.052Z,13.46
2018-05-03T00:40:03.376Z,13.43
2018-05-03T00:42:31.726Z,13.42
2018-05-03T00:45:00.040Z,13.37
2018-05-03T00:47:28.380Z,13.29
2018-05-03T00:49:56.711Z,13.22
2018-05-03T00:52:25.040Z,13.19
2018-05-03T00:54:53.369Z,13.15
2018-05-03T00:57:21.717Z,13.00
2018-05-03T00:59:50.045Z,12.88
2018-05-03T01:02:18.376Z,12.81
2018-05-03T01:04:46.704Z,12.81
2018-05-03T01:07:15.049Z,12.81
2018-05-03T01:09:43.369Z,12.80
2018-05-03T01:12:11.712Z,12.81
2018-05-03T01:14:40.046Z,12.79
2018-05-03T01:17:08.392Z,12.75
2018-05-03T01:19:36.720Z,12.72
2018-05-03T01:22:05.073Z,12.72
2018-05-03T01:24:33.401Z,12.71
2018-05-03T01:27:01.753Z,12.70
2018-05-03T01:29:30.072Z,12.71
2018-05-03T01:31:58.420Z,12.71
2018-05-03T01:34:26.741Z,12.72
2018-05-03T01:36:55.101Z,12.74
2018-05-03T01:39:23.432Z,12.73
2018-05-03T01:41:51.786Z,12.74
2018-05-03T01:44:20.104Z,12.75
2018-05-03T01:46:48.451Z,12.76
2018-05-03T01:49:16.776Z,12.85
2018-05-03T01:51:45.129Z,12.90
2018-05-03T01:54:13.452Z,12.96
2018-05-03T01:56:41.795Z,12.98
2018-05-03T01:59:10.125Z,13.02
2018-05-03T02:01:38.449Z,12.98
2018-05-03T02:04:06.801Z,12.93
2018-05-03T02:06:35.133Z,12.93
2018-05-03T02:09:03.485Z,12.87
2018-05-03T02:11:31.813Z,12.80
2018-05-03T02:14:00.168Z,12.76
2018-05-03T02:16:28.484Z,12.67
2018-05-03T02:18:56.832Z,12.60
2018-05-03T02:21:25.157Z,12.53
2018-05-03T02:23:53.500Z,12.56
2018-05-03T02:26:21.824Z,12.64
2018-05-03T02:28:50.164Z,12.65
2018-05-03T02:31:18.484Z,12.62
2018-05-03T02:33:46.844Z,12.62
2018-05-03T02:36:15.177Z,12.63
2018-05-03T02:38:43.802Z,12.63
2018-05-03T02:41:12.114Z,12.62
2018-05-03T02:43:40.456Z,12.57
2018-05-03T02:46:08.781Z,12.46
2018-05-03T02:48:37.129Z,12.42
2018-05-03T02:51:05.452Z,12.33
2018-05-03T02:53:33.808Z,12.29
2018-05-03T02:56:02.138Z,12.26
2018-05-03T02:58:42.401Z,12.21
2018-05-03T03:01:28.325Z,12.17
2018-05-03T03:04:14.336Z,12.11
2018-05-03T03:07:00.109Z,12.05
2018-05-03T03:12:57.064Z,12.11
2018-05-03T03:15:39.220Z,12.14
2018-05-03T03:18:19.304Z,12.17
2018-05-03T03:21:05.267Z,12.18
2018-05-03T03:23:51.155Z,12.09
2018-05-03T03:26:37.021Z,12.07
2018-05-03T03:29:23.036Z,12.07
2018-05-03T03:32:08.896Z,12.10
2018-05-03T03:34:37.247Z,12.15
2018-05-03T03:37:26.330Z,12.19
2018-05-03T03:40:12.136Z,12.17
2018-05-03T03:45:50.312Z,12.07
2018-05-03T03:48:18.648Z,12.09
2018-05-03T03:50:46.977Z,12.14
2018-05-03T03:53:15.360Z,12.18
2018-05-03T03:55:43.662Z,12.20
2018-05-03T03:58:12.008Z,12.27
2018-05-03T04:00:40.336Z,12.36
2018-05-03T04:03:08.688Z,12.45
2018-05-03T04:05:37.014Z,12.50
2018-05-03T04:08:05.360Z,12.48
2018-05-03T04:10:33.683Z,12.43
2018-05-03T04:13:02.039Z,12.40
2018-05-03T04:15:30.359Z,12.42
2018-05-03T04:18:10.620Z,12.46
2018-05-03T04:21:02.800Z,12.50
2018-05-03T04:23:43.758Z,12.51
2018-05-03T04:26:12.103Z,12.50
2018-05-03T04:28:40.448Z,12.53
2018-05-03T04:31:08.775Z,12.62
2018-05-03T04:33:37.131Z,12.66
2018-05-03T04:36:05.456Z,12.74
2018-05-03T04:38:34.690Z,12.78
2018-05-03T04:41:03.021Z,12.89
2018-05-03T04:43:31.377Z,12.99
2018-05-03T04:45:59.704Z,13.11
2018-05-03T04:48:28.055Z,13.19
2018-05-03T04:50:56.457Z,13.22
2018-05-03T04:53:24.812Z,13.23
2018-05-03T04:55:53.148Z,13.21
2018-05-03T04:58:22.316Z,13.25
2018-05-03T05:00:50.654Z,13.34
2018-05-03T05:03:18.981Z,13.40
2018-05-03T05:05:47.332Z,13.42
2018-05-03T05:08:15.677Z,13.44
2018-05-03T05:10:44.029Z,13.49
2018-05-03T05:13:12.369Z,13.51
2018-05-03T05:15:40.765Z,13.51
2018-05-03T05:18:10.048Z,13.54
2018-05-03T05:20:38.396Z,13.61
2018-05-03T05:23:06.729Z,13.71
2018-05-03T05:25:35.084Z,13.74
2018-05-03T05:28:03.416Z,13.71
2018-05-03T05:30:31.777Z,13.80
2018-05-03T05:33:00.109Z,13.86
2018-05-03T05:35:28.473Z,13.92
2018-05-03T05:37:57.460Z,13.98
2018-05-03T05:40:25.819Z,14.13
2018-05-03T05:42:54.154Z,14.16
2018-05-03T05:45:22.535Z,14.20
2018-05-03T05:47:50.880Z,14.19
2018-05-03T05:50:19.264Z,14.20
2018-05-03T05:52:47.613Z,14.32
2018-05-03T05:55:15.981Z,14.88
2018-05-03T05:57:45.246Z,14.67
2018-05-03T06:00:13.605Z,14.58
2018-05-03T06:02:41.946Z,14.56
2018-05-03T06:05:10.315Z,14.77
2018-05-03T06:07:38.644Z,14.92
2018-05-03T06:10:07.013Z,14.99
2018-05-03T06:12:35.360Z,14.92
2018-05-03T06:20:42.300Z,15.07
2018-05-03T06:23:10.637Z,14.96
2018-05-03T06:25:38.985Z,14.94
2018-05-03T06:28:07.312Z,14.99
2018-05-03T06:30:35.672Z,14.96
2018-05-03T06:33:04.001Z,14.99
2018-05-03T06:35:32.356Z,14.81
2018-05-03T06:38:00.680Z,14.81
2018-05-03T06:43:09.344Z,14.86
2018-05-03T06:45:37.697Z,14.78
2018-05-03T06:48:06.029Z,14.66
2018-05-03T06:50:34.384Z,14.69
2018-05-03T06:53:02.717Z,14.66
2018-05-03T06:55:31.078Z,14.49
2018-05-03T06:57:59.396Z,14.39
2018-05-03T07:00:27.752Z,14.53
2018-05-03T07:02:56.097Z,14.54
2018-05-03T07:05:24.453Z,14.60
2018-05-03T07:07:52.825Z,14.67
2018-05-03T07:10:21.197Z,14.53
2018-05-03T07:12:49.536Z,14.33
2018-05-03T07:15:17.871Z,14.25
2018-05-03T07:17:46.209Z,14.20
2018-05-03T07:20:14.556Z,14.12
2018-05-03T07:22:42.888Z,14.15
2018-05-03T07:25:11.228Z,14.29
2018-05-03T07:27:39.563Z,14.33
2018-05-03T07:30:07.912Z,14.43
2018-05-03T07:32:36.249Z,14.44
2018-05-03T07:35:04.589Z,14.47
2018-05-03T07:37:32.913Z,14.64
2018-05-03T07:40:01.273Z,14.75
2018-05-03T07:42:29.609Z,14.80
2018-05-03T07:44:57.965Z,14.92
2018-05-03T07:47:26.292Z,15.11
2018-05-03T07:49:54.620Z,15.03
2018-05-03T07:52:22.976Z,15.00
2018-05-03T07:54:51.304Z,15.10
2018-05-03T07:57:19.648Z,15.21
2018-05-03T07:59:47.981Z,15.23
2018-05-03T08:02:16.332Z,15.23
2018-05-03T08:04:44.647Z,15.30
2018-05-03T08:07:12.989Z,15.25
2018-05-03T08:09:41.317Z,15.23
2018-05-03T08:12:09.663Z,15.26
2018-05-03T08:14:37.977Z,15.44
2018-05-03T08:17:06.402Z,15.44
2018-05-03T08:19:34.638Z,15.46
2018-05-03T08:22:02.977Z,15.61
2018-05-03T08:24:31.292Z,15.78
2018-05-03T08:26:59.643Z,15.86
2018-05-03T08:29:27.952Z,15.92
2018-05-03T08:31:56.307Z,16.05
2018-05-03T08:34:24.617Z,16.24
2018-05-03T08:36:52.960Z,16.33
2018-05-03T08:39:21.296Z,16.22
2018-05-03T08:41:49.632Z,16.08
2018-05-03T08:44:17.953Z,16.04
2018-05-03T08:46:46.292Z,16.08
2018-05-03T08:49:14.613Z,16.15
2018-05-03T08:51:42.945Z,16.35
2018-05-03T08:54:11.268Z,16.49
2018-05-03T08:56:39.608Z,16.58
2018-05-03T08:59:07.943Z,16.53
2018-05-03T09:01:36.292Z,16.47
2018-05-03T09:04:04.597Z,16.45
2018-05-03T09:06:32.936Z,16.43
2018-05-03T09:09:01.249Z,16.47
2018-05-03T09:11:29.592Z,16.47
2018-05-03T09:13:57.912Z,16.42
2018-05-03T09:16:26.254Z,16.37
2018-05-03T09:18:54.572Z,16.52
2018-05-03T09:21:22.921Z,16.67
2018-05-03T09:23:51.250Z,16.78
2018-05-03T09:26:19.604Z,16.93
2018-05-03T09:28:47.918Z,16.86
2018-05-03T09:31:16.260Z,16.79
2018-05-03T09:33:44.580Z,16.62
2018-05-03T09:36:12.926Z,16.70
2018-05-03T09:38:41.242Z,16.79
2018-05-03T09:41:09.592Z,16.99
2018-05-03T09:43:37.929Z,17.10
2018-05-03T09:46:06.275Z,17.08
2018-05-03T09:48:34.619Z,17.08
2018-05-03T09:51:02.948Z,17.19
2018-05-03T09:53:31.312Z,17.29
2018-05-03T09:55:59.839Z,17.38
2018-05-03T09:58:28.193Z,17.31
2018-05-03T10:00:56.528Z,17.26
2018-05-03T10:03:24.872Z,17.37
2018-05-03T10:05:53.209Z,17.40
2018-05-03T10:08:21.555Z,17.43
2018-05-03T10:10:49.888Z,17.40
2018-05-03T10:13:18.319Z,17.38
2018-05-03T10:15:48.276Z,17.57
2018-05-03T10:18:16.633Z,17.99
2018-05-03T10:20:44.965Z,18.09
2018-05-03T10:23:13.326Z,18.06
2018-05-03T10:25:41.665Z,17.98
2018-05-03T10:28:10.021Z,18.14
2018-05-03T10:30:38.407Z,18.14
2018-05-03T10:33:06.764Z,18.07
2018-05-03T10:35:35.917Z,18.06
2018-05-03T10:38:04.275Z,18.00
2018-05-03T10:40:32.605Z,17.78
2018-05-03T10:43:00.952Z,17.67
2018-05-03T10:45:29.280Z,17.69
2018-05-03T10:47:57.632Z,17.62
2018-05-03T10:50:25.964Z,17.53
2018-05-03T10:52:54.324Z,17.65
2018-05-03T10:55:22.724Z,17.64
2018-05-03T10:57:51.084Z,17.77
2018-05-03T11:00:19.408Z,17.99
2018-05-03T11:02:47.766Z,18.00
2018-05-03T11:05:16.128Z,17.87
2018-05-03T11:07:44.456Z,18.07
2018-05-03T11:10:12.784Z,18.17
2018-05-03T11:12:41.197Z,18.25
2018-05-03T11:15:10.489Z,18.38
2018-05-03T11:17:38.845Z,18.09
2018-05-03T11:20:07.168Z,17.93
2018-05-03T11:22:35.526Z,18.04
2018-05-03T11:25:03.845Z,18.18
2018-05-03T11:27:32.192Z,18.35
2018-05-03T11:30:00.521Z,18.61
2018-05-03T11:32:28.892Z,18.71
2018-05-03T11:34:57.277Z,18.71
2018-05-03T11:37:25.628Z,18.83
2018-05-03T11:39:53.968Z,18.83
2018-05-03T11:42:22.324Z,18.67
2018-05-03T11:44:50.644Z,18.63
2018-05-03T11:47:19.033Z,18.58
2018-05-03T11:49:47.328Z,18.44
2018-05-03T11:52:15.663Z,18.52
2018-05-03T11:54:44.960Z,18.57
2018-05-03T11:57:13.293Z,18.83
2018-05-03T11:59:41.649Z,18.85
2018-05-03T12:02:09.981Z,18.52
2018-05-03T12:04:38.342Z,18.33
2018-05-03T12:07:06.696Z,18.27
2018-05-03T12:09:35.061Z,18.09
2018-05-03T12:12:03.390Z,18.03
2018-05-03T12:14:31.753Z,18.21
2018-05-03T12:17:00.095Z,18.28
2018-05-03T12:19:28.445Z,18.26
2018-05-03T12:21:56.772Z,18.13
2018-05-03T12:24:25.150Z,18.17
2018-05-03T12:26:53.456Z,18.37
2018-05-03T12:29:21.808Z,18.52
2018-05-03T12:31:50.154Z,18.38
2018-05-03T12:34:19.392Z,18.29
2018-05-03T12:36:47.737Z,18.24
2018-05-03T12:39:16.084Z,18.24
2018-05-03T12:41:44.425Z,18.15
2018-05-03T12:44:12.941Z,18.18
2018-05-03T12:46:41.268Z,18.35
2018-05-03T12:49:09.625Z,18.41
2018-05-03T12:51:37.965Z,18.46
2018-05-03T12:54:06.931Z,18.37
2018-05-03T12:56:35.266Z,18.30
2018-05-03T12:59:03.625Z,18.45
2018-05-03T13:01:31.965Z,18.57
2018-05-03T13:04:00.321Z,18.67
2018-05-03T13:06:28.669Z,18.71
2018-05-03T13:08:57.024Z,18.87
2018-05-03T13:11:25.353Z,18.80
2018-05-03T13:13:54.544Z,18.77
2018-05-03T13:16:22.893Z,18.90
2018-05-03T13:18:51.231Z,18.83
2018-05-03T13:21:19.568Z,18.88
2018-05-03T13:23:47.924Z,19.10
2018-05-03T13:26:16.257Z,19.19
2018-05-03T13:28:44.944Z,19.40
2018-05-03T13:31:13.307Z,19.51
2018-05-03T13:33:41.670Z,19.49
2018-05-03T13:36:09.996Z,19.35
2018-05-03T13:38:38.348Z,19.22
2018-05-03T13:41:06.768Z,19.26
2018-05-03T13:43:35.119Z,19.35
2018-05-03T13:46:03.457Z,19.22
2018-05-03T13:48:31.815Z,19.07
2018-05-03T13:51:00.152Z,19.06
2018-05-03T13:53:28.878Z,19.11
2018-05-03T13:55:57.143Z,19.18
2018-05-03T13:58:25.469Z,19.15
2018-05-03T14:00:53.906Z,19.13
2018-05-03T14:03:22.149Z,19.16
2018-05-03T14:05:50.504Z,19.05
2018-05-03T14:08:18.844Z,18.71
2018-05-03T14:10:47.192Z,18.49
2018-05-03T14:13:16.692Z,18.43
2018-05-03T14:15:45.049Z,18.47
2018-05-03T14:18:13.396Z,18.51
2018-05-03T14:20:41.753Z,18.51
2018-05-03T14:23:10.093Z,18.54
2018-05-03T14:25:38.465Z,18.42
2018-05-03T14:28:06.792Z,18.47
2018-05-03T14:30:35.151Z,18.62
2018-05-03T14:33:04.332Z,18.75
2018-05-03T14:35:32.686Z,18.80
2018-05-03T14:38:01.036Z,18.92
2018-05-03T14:40:29.397Z,19.04
2018-05-03T14:42:57.724Z,19.11
2018-05-03T14:45:26.065Z,19.10
2018-05-03T14:47:54.394Z,18.92
2018-05-03T14:50:22.740Z,18.93
2018-05-03T14:52:51.965Z,18.97
2018-05-03T14:55:20.333Z,19.07
2018-05-03T14:57:48.660Z,19.15
2018-05-03T15:00:17.009Z,19.16
2018-05-03T15:02:45.336Z,19.06
2018-05-03T15:05:13.694Z,18.99
2018-05-03T15:07:42.029Z,19.00
2018-05-03T15:10:10.376Z,19.03
2018-05-03T15:12:39.726Z,19.10
2018-05-03T15:15:08.048Z,19.18
2018-05-03T15:17:36.390Z,19.15
2018-05-03T15:20:04.741Z,19.08
2018-05-03T15:22:33.063Z,19.03
2018-05-03T15:25:01.417Z,19.13
2018-05-03T15:27:29.753Z,19.19
2018-05-03T15:29:58.114Z,19.19
2018-05-03T15:32:27.578Z,19.32
2018-05-03T15:34:56.345Z,19.31
2018-05-03T15:37:25.113Z,19.18
2018-05-03T15:39:53.945Z,19.01
2018-05-03T15:42:23.322Z,18.95
2018-05-03T15:44:51.996Z,18.93
2018-05-03T15:47:20.698Z,18.86
2018-05-03T15:49:49.348Z,18.97
2018-05-03T15:52:18.184Z,19.13
2018-05-03T15:54:47.306Z,19.20
2018-05-03T15:57:17.483Z,19.12
2018-05-03T15:59:45.877Z,19.18
2018-05-03T16:02:14.214Z,19.16
2018-05-03T16:04:42.575Z,19.17
2018-05-03T16:07:10.905Z,19.00
2018-05-03T16:09:39.237Z,18.81
2018-05-03T16:12:07.599Z,18.70
2018-05-03T16:14:35.928Z,18.69
2018-05-03T16:17:06.108Z,18.64
2018-05-03T16:19:34.458Z,18.72
2018-05-03T16:22:02.815Z,18.73
2018-05-03T16:24:31.151Z,18.67
2018-05-03T16:26:59.505Z,18.58
2018-05-03T16:29:27.832Z,18.64
2018-05-03T16:31:56.195Z,18.61
2018-05-03T16:34:24.584Z,18.50
2018-05-03T16:36:54.667Z,18.42
2018-05-03T16:39:23.003Z,18.37
2018-05-03T16:41:51.369Z,18.34
2018-05-03T16:44:19.696Z,18.33
2018-05-03T16:46:48.099Z,18.23
2018-05-03T16:49:16.397Z,18.22
2018-05-03T16:51:44.743Z,18.28
2018-05-03T16:54:13.076Z,18.37
2018-05-03T16:56:42.449Z,18.43
2018-05-03T16:59:10.819Z,18.52
2018-05-03T17:01:39.152Z,18.54
2018-05-03T17:04:07.488Z,18.53
2018-05-03T17:06:35.841Z,18.47
2018-05-03T17:09:04.170Z,18.42
2018-05-03T17:11:32.529Z,18.32
2018-05-03T17:14:00.864Z,18.31
2018-05-03T17:16:29.977Z,18.33
2018-05-03T17:18:58.305Z,18.32
2018-05-03T17:21:26.668Z,18.31
2018-05-03T17:23:55.024Z,18.26
2018-05-03T17:26:23.392Z,18.34
2018-05-03T17:28:51.725Z,18.39
2018-05-03T17:31:20.084Z,18.46
2018-05-03T17:33:48.485Z,18.49
2018-05-03T17:36:16.868Z,18.42
2018-05-03T17:38:45.202Z,18.38
2018-05-03T17:41:13.548Z,18.38
2018-05-03T17:43:41.876Z,18.35
2018-05-03T17:46:10.225Z,18.36
2018-05-03T17:48:38.556Z,18.35
2018-05-03T17:51:07.010Z,18.35
2018-05-03T17:53:35.586Z,18.31
2018-05-03T17:56:04.537Z,18.21
2018-05-03T17:58:32.897Z,18.14
2018-05-03T18:01:01.248Z,18.12
2018-05-03T18:03:29.577Z,18.07
2018-05-03T18:05:57.938Z,18.00
2018-05-03T18:08:26.340Z,17.89
2018-05-03T18:10:54.818Z,17.87
2018-05-03T18:13:23.085Z,17.88
2018-05-03T18:15:51.420Z,17.91
2018-05-03T18:18:19.772Z,17.79
2018-05-03T18:20:48.095Z,17.80
2018-05-03T18:23:16.457Z,17.88
2018-05-03T18:25:44.784Z,17.92
2018-05-03T18:28:13.183Z,17.85
2018-05-03T18:30:41.503Z,17.77
2018-05-03T18:33:09.854Z,17.74
2018-05-03T18:35:38.785Z,17.85
2018-05-03T18:38:07.164Z,17.82
2018-05-03T18:40:35.485Z,17.60
2018-05-03T18:43:03.840Z,17.47
2018-05-03T18:45:32.188Z,17.52
2018-05-03T18:48:00.556Z,17.62
2018-05-03T18:50:28.877Z,17.58
2018-05-03T18:52:57.236Z,17.43
2018-05-03T18:55:25.660Z,17.28
2018-05-03T18:57:54.030Z,17.21
2018-05-03T19:00:22.370Z,16.99
2018-05-03T19:02:50.738Z,16.77
2018-05-03T19:05:19.064Z,16.75
2018-05-03T19:07:47.428Z,16.72
2018-05-03T19:10:15.784Z,16.67
2018-05-03T19:12:44.117Z,16.75
2018-05-03T19:15:13.253Z,16.68
2018-05-03T19:17:41.604Z,16.47
2018-05-03T19:20:09.936Z,16.47
2018-05-03T19:22:38.298Z,16.63
2018-05-03T19:25:06.645Z,16.60
2018-05-03T19:27:35.001Z,16.52
2018-05-03T19:32:50.693Z,16.60
2018-05-03T19:35:19.077Z,16.44
2018-05-03T19:37:47.604Z,16.34
2018-05-03T19:40:15.952Z,16.30
2018-05-03T19:42:44.353Z,16.21
2018-05-03T19:45:12.692Z,16.12
2018-05-03T19:47:41.118Z,15.84
2018-05-03T19:50:09.380Z,15.57
2018-05-03T19:52:37.736Z,15.38
2018-05-03T19:55:06.372Z,15.22
2018-05-03T19:57:34.733Z,15.10
2018-05-03T20:00:03.077Z,15.03
2018-05-03T20:02:31.444Z,14.99
2018-05-03T20:04:59.772Z,14.92
2018-05-03T20:07:28.133Z,14.94
2018-05-03T20:09:56.475Z,14.90
2018-05-03T20:12:24.829Z,14.81
2018-05-03T20:14:53.161Z,14.64
2018-05-03T20:17:21.534Z,14.49
2018-05-03T20:19:49.874Z,14.34
2018-05-03T20:22:18.226Z,14.20
2018-05-03T20:27:21.197Z,13.97
2018-05-03T20:29:49.535Z,13.91
2018-05-03T20:32:17.908Z,13.78
2018-05-03T20:34:46.250Z,13.70
2018-05-03T20:37:14.585Z,13.67
2018-05-03T20:39:44.578Z,13.68
2018-05-03T20:42:12.860Z,13.86
2018-05-03T20:44:41.213Z,14.06
2018-05-03T20:47:09.553Z,14.26
2018-05-03T20:49:37.910Z,14.36
2018-05-03T20:52:06.308Z,14.45
2018-05-03T20:54:34.593Z,14.55
2018-05-03T20:57:02.929Z,14.59
2018-05-03T20:59:32.197Z,14.64
2018-05-03T21:02:00.533Z,14.67
2018-05-03T21:04:28.905Z,14.72
2018-05-03T21:06:57.312Z,14.70
2018-05-03T21:09:25.601Z,14.66
2018-05-03T21:11:53.938Z,14.64
2018-05-03T21:14:22.302Z,14.66
2018-05-03T21:16:50.636Z,14.68
2018-05-03T21:19:19.938Z,14.62
2018-05-03T21:21:48.275Z,14.51
2018-05-03T21:24:16.631Z,14.47
2018-05-03T21:26:44.976Z,14.44
2018-05-03T21:29:13.325Z,14.42
2018-05-03T21:31:41.661Z,14.39
2018-05-03T21:34:10.017Z,14.37
2018-05-03T21:36:38.352Z,14.30
2018-05-03T21:39:06.705Z,14.30
2018-05-03T21:41:35.097Z,14.32
2018-05-03T21:44:03.394Z,14.27
2018-05-03T21:46:31.717Z,14.21
2018-05-03T21:49:00.065Z,14.19
2018-05-03T21:51:28.390Z,14.05
2018-05-03T21:53:56.736Z,13.98
2018-05-03T21:56:25.062Z,13.83
2018-05-03T21:58:53.404Z,13.80
2018-05-03T22:01:21.733Z,13.79
2018-05-03T22:03:50.086Z,13.81
2018-05-03T22:06:18.401Z,13.77
2018-05-03T22:08:46.761Z,13.76
2018-05-03T22:11:15.100Z,13.72
2018-05-03T22:13:43.461Z,13.64
2018-05-03T22:16:11.797Z,13.63
2018-05-03T22:18:40.149Z,13.64
2018-05-03T22:21:08.472Z,13.60
2018-05-03T22:23:36.828Z,13.57
2018-05-03T22:26:05.153Z,13.55
2018-05-03T22:28:33.510Z,13.46
2018-05-03T22:31:01.836Z,13.45
2018-05-03T22:33:30.172Z,13.42
2018-05-03T22:35:58.508Z,13.38
2018-05-03T22:38:26.852Z,13.30
2018-05-03T22:40:55.219Z,13.33
2018-05-03T22:43:23.542Z,13.31
2018-05-03T22:45:51.896Z,13.27
2018-05-03T22:48:20.229Z,13.23
2018-05-03T22:50:48.584Z,13.16
2018-05-03T22:53:16.908Z,13.09
2018-05-03T22:55:45.260Z,13.04
2018-05-03T22:58:13.597Z,12.99
2018-05-03T23:00:41.959Z,12.91
2018-05-03T23:03:10.285Z,12.85
2018-05-03T23:05:38.636Z,12.79
2018-05-03T23:08:06.978Z,12.66
2018-05-03T23:10:35.336Z,12.61
2018-05-03T23:13:03.668Z,12.63
2018-05-03T23:15:32.028Z,12.62
2018-05-03T23:18:00.360Z,12.57
2018-05-03T23:20:28.727Z,12.56
2018-05-03T23:22:57.049Z,12.57
2018-05-03T23:25:25.396Z,12.55
2018-05-03T23:27:53.845Z,12.48
2018-05-03T23:30:22.207Z,12.42
2018-05-03T23:32:50.535Z,12.41
2018-05-03T23:35:18.884Z,12.30
2018-05-03T23:37:47.208Z,12.19
2018-05-03T23:40:15.566Z,12.11
2018-05-03T23:42:43.904Z,12.02
2018-05-03T23:45:12.261Z,11.90
2018-05-03T23:47:40.597Z,11.85
2018-05-03T23:50:08.944Z,11.80
2018-05-03T23:52:37.277Z,11.76
2018-05-03T23:55:05.641Z,11.74
2018-05-03T23:57:33.972Z,11.76
